createdAt,value
2018-11-05T00:01:13.536Z,101645.72
2018-11-05T00:03:41.876Z,101643.70
2018-11-05T00:06:10.212Z,101642.75
2018-11-05T00:08:38.556Z,101640.39
2018-11-05T00:11:06.904Z,101639.36
2018-11-05T00:13:35.232Z,101632.89
2018-11-05T00:16:03.549Z,101637.09
2018-11-05T00:18:31.956Z,101640.04
2018-11-05T00:21:00.268Z,101641.23
2018-11-05T00:23:28.604Z,101637.69
2018-11-05T00:25:56.920Z,101643.57
2018-11-05T00:28:25.324Z,101646.32
2018-11-05T00:30:53.635Z,101643.81
2018-11-05T00:33:21.961Z,101640.13
2018-11-05T00:35:50.255Z,101641.42
2018-11-05T00:38:18.589Z,101631.06
2018-11-05T00:40:46.900Z,101635.70
2018-11-05T00:43:15.243Z,101627.00
2018-11-05T00:45:43.614Z,101620.92
2018-11-05T00:48:11.872Z,101626.80
2018-11-05T00:50:40.189Z,101625.33
2018-11-05T00:53:08.501Z,101618.81
2018-11-05T00:55:36.829Z,101613.84
2018-11-05T00:58:05.444Z,101615.63
2018-11-05T01:00:33.772Z,101618.86
2018-11-05T01:03:02.204Z,101619.13
2018-11-05T01:05:30.528Z,101612.38
2018-11-05T01:07:58.876Z,101607.84
2018-11-05T01:10:27.204Z,101605.73
2018-11-05T01:12:55.515Z,101601.28
2018-11-05T01:15:23.840Z,101599.27
2018-11-05T01:17:52.260Z,101601.80
2018-11-05T01:20:20.591Z,101602.16
2018-11-05T01:22:48.905Z,101610.83
2018-11-05T01:25:17.219Z,101609.27
2018-11-05T01:27:45.518Z,101595.13
2018-11-05T01:30:14.195Z,101592.34
2018-11-05T01:32:42.560Z,101595.08
2018-11-05T01:35:12.079Z,101589.24
2018-11-05T01:37:40.394Z,101581.34
2018-11-05T01:40:11.223Z,101585.71
2018-11-05T01:42:39.551Z,101580.66
2018-11-05T01:45:09.582Z,101580.86
2018-11-05T01:47:37.958Z,101578.83
2018-11-05T01:50:07.743Z,101577.31
2018-11-05T01:52:36.057Z,101577.80
2018-11-05T01:55:04.527Z,101580.41
2018-11-05T01:57:32.824Z,101569.92
2018-11-05T02:00:01.127Z,101570.25
2018-11-05T02:02:29.475Z,101572.16
2018-11-05T02:04:57.919Z,101556.27
2018-11-05T02:07:26.415Z,101569.89
2018-11-05T02:09:54.727Z,101573.97
2018-11-05T02:12:23.080Z,101573.47
2018-11-05T02:14:51.402Z,101576.03
2018-11-05T02:17:19.724Z,101571.74
2018-11-05T02:19:49.315Z,101569.92
2018-11-05T02:22:17.643Z,101573.77
2018-11-05T02:24:45.955Z,101577.91
2018-11-05T02:27:14.385Z,101555.97
2018-11-05T02:29:42.612Z,101567.09
2018-11-05T02:32:11.147Z,101569.23
2018-11-05T02:34:39.515Z,101564.13
2018-11-05T02:37:07.816Z,101559.69
2018-11-05T02:39:36.143Z,101552.75
2018-11-05T02:42:04.562Z,101550.37
2018-11-05T02:44:32.847Z,101554.54
2018-11-05T02:47:01.347Z,101543.83
2018-11-05T02:49:29.621Z,101539.55
2018-11-05T02:51:57.899Z,101537.88
2018-11-05T02:54:26.264Z,101540.97
2018-11-05T02:56:54.585Z,101540.25
2018-11-05T02:59:22.925Z,101539.45
2018-11-05T03:01:51.389Z,101541.71
2018-11-05T03:04:19.725Z,101541.90
2018-11-05T03:06:48.064Z,101548.19
2018-11-05T03:09:16.431Z,101533.88
2018-11-05T03:11:44.759Z,101528.78
2018-11-05T03:14:13.101Z,101531.16
2018-11-05T03:16:41.592Z,101533.81
2018-11-05T03:19:09.924Z,101522.03
2018-11-05T03:21:38.244Z,101531.78
2018-11-05T03:24:06.622Z,101537.41
2018-11-05T03:26:34.936Z,101536.10
2018-11-05T03:29:03.309Z,101534.08
2018-11-05T03:31:31.656Z,101521.53
2018-11-05T03:34:00.081Z,101532.62
2018-11-05T03:36:28.408Z,101525.95
2018-11-05T03:38:57.000Z,101521.65
2018-11-05T03:41:25.334Z,101520.77
2018-11-05T03:43:53.651Z,101522.34
2018-11-05T03:46:22.012Z,101516.71
2018-11-05T03:48:50.340Z,101520.11
2018-11-05T03:51:18.661Z,101521.36
2018-11-05T03:53:47.897Z,101514.00
2018-11-05T03:56:16.320Z,101516.38
2018-11-05T03:58:44.556Z,101517.23
2018-11-05T04:01:12.940Z,101514.50
2018-11-05T04:03:41.269Z,101510.23
2018-11-05T04:06:09.602Z,101503.40
2018-11-05T04:08:38.100Z,101497.58
2018-11-05T04:11:06.493Z,101496.15
2018-11-05T04:13:34.803Z,101488.03
2018-11-05T04:16:03.244Z,101489.70
2018-11-05T04:18:31.900Z,101485.91
2018-11-05T04:21:00.227Z,101492.01
2018-11-05T04:23:28.732Z,101488.66
2018-11-05T04:25:57.060Z,101491.99
2018-11-05T04:28:25.369Z,101495.09
2018-11-05T04:30:53.700Z,101489.00
2018-11-05T04:33:22.036Z,101484.13
2018-11-05T04:35:50.360Z,101481.59
2018-11-05T04:38:18.745Z,101485.28
2018-11-05T04:40:47.054Z,101484.13
2018-11-05T04:43:15.411Z,101487.82
2018-11-05T04:45:43.728Z,101491.16
2018-11-05T04:48:12.072Z,101485.13
2018-11-05T04:50:40.376Z,101477.17
2018-11-05T04:53:08.711Z,101477.08
2018-11-05T04:55:37.037Z,101473.00
2018-11-05T04:58:05.416Z,101466.34
2018-11-05T05:00:33.745Z,101461.44
2018-11-05T05:03:02.116Z,101462.50
2018-11-05T05:05:30.452Z,101464.80
2018-11-05T05:07:58.777Z,101469.95
2018-11-05T05:10:27.153Z,101471.02
2018-11-05T05:12:55.476Z,101462.18
2018-11-05T05:15:23.843Z,101456.82
2018-11-05T05:17:52.149Z,101449.58
2018-11-05T05:20:20.499Z,101455.48
2018-11-05T05:22:48.992Z,101464.20
2018-11-05T05:25:17.175Z,101469.48
2018-11-05T05:27:45.571Z,101471.88
2018-11-05T05:30:17.672Z,101478.91
2018-11-05T05:32:46.846Z,101473.52
2018-11-05T05:35:15.658Z,101468.63
2018-11-05T05:37:44.108Z,101468.25
2018-11-05T05:40:12.500Z,101474.34
2018-11-05T05:42:41.276Z,101470.63
2018-11-05T05:45:10.921Z,101462.64
2018-11-05T05:47:39.472Z,101466.34
2018-11-05T05:50:10.806Z,101463.59
2018-11-05T05:52:39.197Z,101464.16
2018-11-05T05:55:08.018Z,101458.80
2018-11-05T05:57:36.460Z,101449.02
2018-11-05T06:00:08.177Z,101462.14
2018-11-05T06:02:36.700Z,101457.11
2018-11-05T06:05:06.524Z,101454.02
2018-11-05T06:07:34.822Z,101450.95
2018-11-05T06:10:03.122Z,101454.66
2018-11-05T06:12:31.458Z,101442.12
2018-11-05T06:14:59.734Z,101444.54
2018-11-05T06:17:28.038Z,101444.52
2018-11-05T06:19:56.316Z,101449.77
2018-11-05T06:22:24.706Z,101448.00
2018-11-05T06:24:53.006Z,101450.23
2018-11-05T06:27:21.282Z,101450.59
2018-11-05T06:29:49.762Z,101456.33
2018-11-05T06:32:18.062Z,101455.27
2018-11-05T06:34:46.322Z,101456.08
2018-11-05T06:37:14.638Z,101453.72
2018-11-05T06:39:42.914Z,101453.51
2018-11-05T06:42:11.206Z,101457.53
2018-11-05T06:44:39.482Z,101455.83
2018-11-05T06:47:07.758Z,101456.68
2018-11-05T06:49:36.030Z,101452.06
2018-11-05T06:52:04.502Z,101454.20
2018-11-05T06:54:32.799Z,101456.97
2018-11-05T06:57:01.066Z,101455.53
2018-11-05T06:59:29.358Z,101450.98
2018-11-05T07:01:57.629Z,101446.59
2018-11-05T07:04:25.922Z,101442.73
2018-11-05T07:06:54.198Z,101442.73
2018-11-05T07:09:23.562Z,101445.72
2018-11-05T07:11:51.821Z,101455.05
2018-11-05T07:14:20.176Z,101449.88
2018-11-05T07:16:48.498Z,101451.34
2018-11-05T07:19:16.896Z,101443.23
2018-11-05T07:21:45.168Z,101444.08
2018-11-05T07:24:13.633Z,101444.42
2018-11-05T07:26:42.053Z,101446.56
2018-11-05T07:29:10.327Z,101450.14
2018-11-05T07:31:38.632Z,101456.14
2018-11-05T07:34:07.178Z,101461.02
2018-11-05T07:36:35.332Z,101454.31
2018-11-05T07:39:03.772Z,101462.33
2018-11-05T07:41:32.079Z,101463.73
2018-11-05T07:44:00.419Z,101465.18
2018-11-05T07:46:28.735Z,101463.76
2018-11-05T07:48:57.114Z,101464.72
2018-11-05T07:51:25.432Z,101467.57
2018-11-05T07:53:53.744Z,101466.64
2018-11-05T07:56:22.202Z,101462.55
2018-11-05T07:58:50.412Z,101464.82
2018-11-05T08:01:18.743Z,101466.88
2018-11-05T08:03:47.103Z,101467.20
2018-11-05T08:06:17.419Z,101457.91
2018-11-05T08:08:45.824Z,101457.30
2018-11-05T08:11:14.851Z,101454.09
2018-11-05T08:13:43.168Z,101452.75
2018-11-05T08:16:11.577Z,101455.60
2018-11-05T08:18:39.879Z,101450.22
2018-11-05T08:21:08.263Z,101451.70
2018-11-05T08:23:36.605Z,101455.25
2018-11-05T08:26:05.556Z,101445.22
2018-11-05T08:31:23.584Z,101442.67
2018-11-05T08:33:51.905Z,101446.41
2018-11-05T08:36:20.264Z,101443.07
2018-11-05T08:38:48.624Z,101444.25
2018-11-05T08:41:17.030Z,101441.14
2018-11-05T08:43:45.356Z,101441.17
2018-11-05T08:46:13.732Z,101440.75
2018-11-05T08:48:42.066Z,101440.97
2018-11-05T08:51:10.546Z,101444.16
2018-11-05T08:53:38.769Z,101444.20
2018-11-05T08:56:07.152Z,101447.31
2018-11-05T08:58:35.516Z,101437.16
2018-11-05T09:01:09.355Z,101434.39
2018-11-05T09:03:37.603Z,101431.64
2018-11-05T09:06:06.376Z,101429.13
2018-11-05T09:08:34.896Z,101427.83
2018-11-05T09:11:03.582Z,101421.45
2018-11-05T09:13:31.600Z,101423.23
2018-11-05T09:15:59.937Z,101424.99
2018-11-05T09:18:28.457Z,101427.61
2018-11-05T09:20:56.912Z,101430.84
2018-11-05T09:23:25.195Z,101431.84
2018-11-05T09:25:53.775Z,101425.11
2018-11-05T09:28:22.104Z,101430.45
2018-11-05T09:30:50.430Z,101421.30
2018-11-05T09:33:18.856Z,101419.64
2018-11-05T09:35:47.211Z,101420.34
2018-11-05T09:38:15.544Z,101423.66
2018-11-05T09:40:43.956Z,101423.67
2018-11-05T09:43:12.292Z,101421.84
2018-11-05T09:45:40.620Z,101427.69
2018-11-05T09:48:08.952Z,101425.95
2018-11-05T09:50:37.354Z,101423.87
2018-11-05T09:53:05.945Z,101416.80
2018-11-05T09:55:34.352Z,101410.15
2018-11-05T09:58:02.660Z,101408.41
2018-11-05T10:00:31.000Z,101409.50
2018-11-05T10:03:18.016Z,101413.36
2018-11-05T10:05:46.420Z,101409.33
2018-11-05T10:08:15.738Z,101403.03
2018-11-05T10:10:44.080Z,101409.94
2018-11-05T10:13:12.432Z,101407.79
2018-11-05T10:15:40.776Z,101412.97
2018-11-05T10:18:09.237Z,101410.26
2018-11-05T10:20:37.580Z,101409.78
2018-11-05T10:23:06.060Z,101408.38
2018-11-05T10:25:34.400Z,101412.27
2018-11-05T10:28:05.018Z,101415.15
2018-11-05T10:30:33.520Z,101405.66
2018-11-05T10:33:01.901Z,101406.01
2018-11-05T10:35:35.837Z,101401.66
2018-11-05T10:38:04.176Z,101401.52
2018-11-05T10:40:32.610Z,101403.28
2018-11-05T10:43:00.967Z,101406.25
2018-11-05T10:45:29.257Z,101404.60
2018-11-05T10:47:57.588Z,101415.25
2018-11-05T10:50:26.339Z,101408.67
2018-11-05T10:52:54.628Z,101403.36
2018-11-05T10:55:22.956Z,101394.25
2018-11-05T10:57:51.305Z,101397.45
2018-11-05T11:00:26.492Z,101394.34
2018-11-05T11:03:00.308Z,101389.97
2018-11-05T11:05:29.634Z,101373.44
2018-11-05T11:07:58.920Z,101384.03
2018-11-05T11:10:28.144Z,101381.21
2018-11-05T11:12:56.693Z,101371.35
2018-11-05T11:15:25.155Z,101373.64
2018-11-05T11:17:53.832Z,101361.94
2018-11-05T11:20:22.161Z,101371.23
2018-11-05T11:22:50.493Z,101365.97
2018-11-05T11:25:18.972Z,101365.43
2018-11-05T11:27:47.377Z,101357.36
2018-11-05T11:30:16.372Z,101353.01
2018-11-05T11:32:45.276Z,101346.48
2018-11-05T11:35:13.944Z,101347.12
2018-11-05T11:37:42.324Z,101345.71
2018-11-05T11:40:14.078Z,101339.91
2018-11-05T11:42:43.480Z,101343.43
2018-11-05T11:45:12.784Z,101341.09
2018-11-05T11:47:41.133Z,101336.55
2018-11-05T11:50:11.605Z,101330.95
2018-11-05T11:52:40.141Z,101323.33
2018-11-05T11:55:10.627Z,101320.55
2018-11-05T11:57:39.324Z,101311.81
2018-11-05T12:00:10.428Z,101302.67
2018-11-05T12:02:38.780Z,101289.52
2018-11-05T12:05:08.044Z,101287.89
2018-11-05T12:07:36.486Z,101286.89
2018-11-05T12:10:07.684Z,101285.92
2018-11-05T12:12:36.021Z,101289.29
2018-11-05T12:15:04.621Z,101291.62
2018-11-05T12:17:32.752Z,101281.27
2018-11-05T12:20:01.092Z,101273.73
2018-11-05T12:22:29.516Z,101273.95
2018-11-05T12:24:57.900Z,101279.89
2018-11-05T12:27:26.172Z,101282.23
2018-11-05T12:29:54.551Z,101279.88
2018-11-05T12:32:22.908Z,101280.74
2018-11-05T12:34:51.217Z,101274.05
2018-11-05T12:37:19.968Z,101272.84
2018-11-05T12:39:48.301Z,101275.93
2018-11-05T12:42:16.632Z,101274.89
2018-11-05T12:44:45.041Z,101277.21
2018-11-05T12:47:13.440Z,101277.76
2018-11-05T12:49:41.758Z,101280.39
2018-11-05T12:52:10.079Z,101274.05
2018-11-05T12:54:38.440Z,101268.77
2018-11-05T12:57:06.768Z,101267.06
2018-11-05T12:59:35.105Z,101267.37
2018-11-05T13:02:03.434Z,101266.55
2018-11-05T13:04:31.776Z,101257.67
2018-11-05T13:07:00.307Z,101250.65
2018-11-05T13:09:28.732Z,101247.64
2018-11-05T13:11:57.272Z,101246.82
2018-11-05T13:14:26.336Z,101243.74
2018-11-05T13:16:55.032Z,101248.62
2018-11-05T13:19:23.368Z,101245.89
2018-11-05T13:21:51.692Z,101254.78
2018-11-05T13:24:20.274Z,101251.29
2018-11-05T13:26:48.688Z,101247.06
2018-11-05T13:29:17.165Z,101245.68
2018-11-05T13:31:45.512Z,101232.67
2018-11-05T13:34:13.857Z,101230.94
2018-11-05T13:36:42.422Z,101227.10
2018-11-05T13:39:10.797Z,101218.69
2018-11-05T13:41:39.269Z,101227.83
2018-11-05T13:44:07.629Z,101224.45
2018-11-05T13:46:36.351Z,101231.14
2018-11-05T13:49:04.978Z,101229.25
2018-11-05T13:51:32.693Z,101227.62
2018-11-05T13:54:01.060Z,101212.70
2018-11-05T13:56:29.392Z,101213.77
2018-11-05T13:58:57.735Z,101219.06
2018-11-05T14:01:26.069Z,101213.78
2018-11-05T14:03:54.422Z,101202.12
2018-11-05T14:06:23.772Z,101211.11
2018-11-05T14:08:52.123Z,101216.30
2018-11-05T14:11:20.451Z,101208.34
2018-11-05T14:13:48.803Z,101211.05
2018-11-05T14:16:17.140Z,101212.50
2018-11-05T14:18:45.493Z,101207.69
2018-11-05T14:21:13.836Z,101211.98
2018-11-05T14:23:42.185Z,101211.42
2018-11-05T14:26:10.703Z,101202.39
2018-11-05T14:28:39.119Z,101207.03
2018-11-05T14:31:07.239Z,101209.20
2018-11-05T14:33:36.677Z,101204.54
2018-11-05T14:36:05.025Z,101206.41
2018-11-05T14:38:33.464Z,101210.94
2018-11-05T14:41:01.772Z,101205.61
2018-11-05T14:43:30.117Z,101206.51
2018-11-05T14:45:58.489Z,101208.00
2018-11-05T14:48:26.836Z,101205.09
2018-11-05T14:50:55.178Z,101186.69
2018-11-05T14:53:23.640Z,101194.57
2018-11-05T14:55:51.973Z,101203.16
2018-11-05T14:58:20.301Z,101193.71
2018-11-05T15:00:48.780Z,101192.13
2018-11-05T15:03:17.120Z,101199.66
2018-11-05T15:05:45.560Z,101190.94
2018-11-05T15:08:13.912Z,101186.41
2018-11-05T15:10:42.231Z,101182.30
2018-11-05T15:13:10.604Z,101186.17
2018-11-05T15:15:38.928Z,101175.62
2018-11-05T15:18:07.340Z,101174.34
2018-11-05T15:20:35.572Z,101179.94
2018-11-05T15:23:03.942Z,101173.82
2018-11-05T15:25:32.419Z,101167.11
2018-11-05T15:28:00.680Z,101166.17
2018-11-05T15:30:29.015Z,101162.71
2018-11-05T15:32:57.354Z,101166.73
2018-11-05T15:35:25.672Z,101173.20
2018-11-05T15:37:54.019Z,101175.48
2018-11-05T15:40:22.657Z,101171.05
2018-11-05T15:42:51.000Z,101178.11
2018-11-05T15:45:20.641Z,101181.25
2018-11-05T15:47:48.984Z,101186.06
2018-11-05T15:50:18.633Z,101181.64
2018-11-05T15:52:47.273Z,101189.42
2018-11-05T15:55:15.595Z,101185.36
2018-11-05T15:57:43.948Z,101187.17
2018-11-05T16:00:15.525Z,101177.48
2018-11-05T16:02:44.872Z,101171.70
2018-11-05T16:05:13.274Z,101167.80
2018-11-05T16:07:41.613Z,101167.49
2018-11-05T16:10:09.985Z,101165.66
2018-11-05T16:12:38.739Z,101166.28
2018-11-05T16:15:08.148Z,101161.02
2018-11-05T16:17:37.044Z,101156.28
2018-11-05T16:20:06.637Z,101141.17
2018-11-05T16:22:35.063Z,101145.98
2018-11-05T16:25:03.433Z,101141.13
2018-11-05T16:27:32.161Z,101137.37
2018-11-05T16:30:00.667Z,101148.61
2018-11-05T16:32:29.012Z,101142.11
2018-11-05T16:34:58.052Z,101144.80
2018-11-05T16:37:26.327Z,101140.09
2018-11-05T16:39:54.740Z,101145.25
2018-11-05T16:42:23.389Z,101145.25
2018-11-05T16:44:51.724Z,101158.05
2018-11-05T16:47:20.065Z,101165.66
2018-11-05T16:49:49.067Z,101164.45
2018-11-05T16:52:17.393Z,101161.95
2018-11-05T16:54:45.808Z,101152.67
2018-11-05T16:57:14.213Z,101154.45
2018-11-05T16:59:42.704Z,101154.83
2018-11-05T17:02:14.585Z,101154.83
2018-11-05T17:04:43.733Z,101153.38
2018-11-05T17:07:12.066Z,101156.97
2018-11-05T17:09:40.405Z,101161.64
2018-11-05T17:12:08.941Z,101164.69
2018-11-05T17:14:37.597Z,101154.28
2018-11-05T17:17:05.961Z,101153.03
2018-11-05T17:19:34.636Z,101154.00
2018-11-05T17:22:03.056Z,101150.67
2018-11-05T17:24:31.393Z,101152.34
2018-11-05T17:26:59.757Z,101153.03
2018-11-05T17:29:28.080Z,101159.40
2018-11-05T17:31:56.549Z,101149.09
2018-11-05T17:34:24.992Z,101145.70
2018-11-05T17:36:53.541Z,101151.11
2018-11-05T17:39:21.868Z,101149.45
2018-11-05T17:41:50.314Z,101148.83
2018-11-05T17:44:18.650Z,101139.36
2018-11-05T17:46:46.984Z,101138.99
2018-11-05T17:49:15.444Z,101144.23
2018-11-05T17:51:43.773Z,101147.25
2018-11-05T17:54:12.109Z,101142.34
2018-11-05T17:56:40.524Z,101138.57
2018-11-05T17:59:08.936Z,101126.59
2018-11-05T18:01:37.303Z,101130.72
2018-11-05T18:04:06.346Z,101131.41
2018-11-05T18:06:34.624Z,101124.82
2018-11-05T18:09:03.022Z,101133.58
2018-11-05T18:11:31.397Z,101131.70
2018-11-05T18:13:59.779Z,101125.70
2018-11-05T18:16:28.112Z,101118.97
2018-11-05T18:18:56.523Z,101129.83
2018-11-05T18:21:24.868Z,101115.48
2018-11-05T18:23:53.203Z,101119.48
2018-11-05T18:26:21.525Z,101118.14
2018-11-05T18:28:51.091Z,101105.83
2018-11-05T18:31:19.497Z,101093.91
2018-11-05T18:33:47.748Z,101091.11
2018-11-05T18:36:16.156Z,101090.76
2018-11-05T18:38:44.505Z,101093.55
2018-11-05T18:41:12.849Z,101111.75
2018-11-05T18:43:41.204Z,101110.77
2018-11-05T18:46:09.549Z,101101.42
2018-11-05T18:48:37.913Z,101099.03
2018-11-05T18:51:06.328Z,101099.14
2018-11-05T18:53:34.765Z,101095.78
2018-11-05T18:56:03.366Z,101100.03
2018-11-05T18:58:31.725Z,101088.22
2018-11-05T19:01:00.062Z,101066.59
2018-11-05T19:03:28.515Z,101062.38
2018-11-05T19:05:56.865Z,101061.96
2018-11-05T19:08:25.197Z,101073.50
2018-11-05T19:10:53.541Z,101089.96
2018-11-05T19:13:22.429Z,101073.02
2018-11-05T19:15:50.840Z,101051.09
2018-11-05T19:18:19.112Z,101048.20
2018-11-05T19:20:47.517Z,101057.32
2018-11-05T19:23:15.913Z,101058.33
2018-11-05T19:25:44.358Z,101053.10
2018-11-05T19:28:12.893Z,101056.70
2018-11-05T19:30:41.337Z,101052.59
2018-11-05T19:33:09.650Z,101034.52
2018-11-05T19:35:38.005Z,101041.13
2018-11-05T19:38:06.352Z,101043.65
2018-11-05T19:40:34.688Z,101048.62
2018-11-05T19:43:03.055Z,101050.35
2018-11-05T19:45:31.412Z,101056.40
2018-11-05T19:47:59.745Z,101053.91
2018-11-05T19:50:28.104Z,101038.11
2018-11-05T19:52:56.450Z,101036.63
2018-11-05T19:55:24.863Z,101033.77
2018-11-05T19:57:53.694Z,101036.70
2018-11-05T20:00:27.903Z,101036.03
2018-11-05T20:02:57.259Z,101028.84
2018-11-05T20:05:25.679Z,101024.84
2018-11-05T20:07:54.780Z,101035.23
2018-11-05T20:10:23.175Z,101027.84
2018-11-05T20:12:51.553Z,101019.59
2018-11-05T20:15:20.012Z,101010.81
2018-11-05T20:17:49.225Z,101012.84
2018-11-05T20:20:19.021Z,101006.19
2018-11-05T20:22:47.470Z,101012.23
2018-11-05T20:25:15.797Z,101023.42
2018-11-05T20:27:44.364Z,101034.38
2018-11-05T20:30:17.341Z,101037.25
2018-11-05T20:32:46.936Z,101021.93
2018-11-05T20:35:15.226Z,101018.86
2018-11-05T20:37:43.624Z,101017.96
2018-11-05T20:40:14.285Z,101025.98
2018-11-05T20:42:43.755Z,101021.15
2018-11-05T20:45:12.124Z,101014.38
2018-11-05T20:47:40.825Z,100998.41
2018-11-05T20:50:10.005Z,100995.78
2018-11-05T20:52:38.685Z,100992.81
2018-11-05T20:55:08.217Z,101005.95
2018-11-05T20:57:36.608Z,100996.34
2018-11-05T21:00:05.938Z,100998.93
2018-11-05T21:02:34.304Z,100999.41
2018-11-05T21:05:03.302Z,100994.81
2018-11-05T21:07:31.871Z,100996.58
2018-11-05T21:10:01.301Z,100996.53
2018-11-05T21:12:29.692Z,100990.53
2018-11-05T21:14:58.040Z,100985.31
2018-11-05T21:17:26.355Z,100981.38
2018-11-05T21:19:54.820Z,100970.94
2018-11-05T21:22:23.191Z,100982.34
2018-11-05T21:24:51.473Z,100975.27
2018-11-05T21:27:19.808Z,100969.73
2018-11-05T21:29:48.181Z,100968.34
2018-11-05T21:32:16.507Z,100964.59
2018-11-05T21:34:44.941Z,100970.98
2018-11-05T21:37:13.230Z,100972.00
2018-11-05T21:39:41.568Z,100956.80
2018-11-05T21:42:10.100Z,100947.99
2018-11-05T21:44:38.440Z,100946.45
2018-11-05T21:47:06.771Z,100952.00
2018-11-05T21:49:35.176Z,100948.28
2018-11-05T21:52:03.525Z,100944.41
2018-11-05T21:54:31.940Z,100937.84
2018-11-05T21:57:00.552Z,100929.09
2018-11-05T21:59:28.880Z,100936.11
2018-11-05T22:01:57.244Z,100924.31
2018-11-05T22:04:26.725Z,100928.11
2018-11-05T22:06:55.085Z,100929.91
2018-11-05T22:09:23.444Z,100938.55
2018-11-05T22:11:51.818Z,100943.25
2018-11-05T22:14:20.208Z,100947.05
2018-11-05T22:16:48.534Z,100948.77
2018-11-05T22:19:16.895Z,100942.45
2018-11-05T22:21:45.241Z,100945.30
2018-11-05T22:24:13.593Z,100950.53
2018-11-05T22:26:41.944Z,100945.98
2018-11-05T22:29:10.329Z,100952.97
2018-11-05T22:31:38.646Z,100943.81
2018-11-05T22:34:06.975Z,100943.67
2018-11-05T22:36:36.283Z,100928.20
2018-11-05T22:39:06.323Z,100925.59
2018-11-05T22:41:34.715Z,100921.81
2018-11-05T22:44:03.031Z,100914.21
2018-11-05T22:46:31.339Z,100905.73
2018-11-05T22:48:59.647Z,100906.50
2018-11-05T22:51:28.095Z,100909.73
2018-11-05T22:53:56.417Z,100904.16
2018-11-05T22:56:24.762Z,100906.38
2018-11-05T22:58:53.067Z,100896.78
2018-11-05T23:01:26.651Z,100898.66
2018-11-05T23:03:54.993Z,100897.48
2018-11-05T23:06:23.316Z,100892.02
2018-11-05T23:08:51.688Z,100889.28
2018-11-05T23:11:20.000Z,100887.63
2018-11-05T23:13:48.600Z,100882.66
2018-11-05T23:16:16.972Z,100884.94
2018-11-05T23:18:45.309Z,100887.09
2018-11-05T23:21:13.649Z,100885.08
2018-11-05T23:23:42.046Z,100885.21
2018-11-05T23:26:10.368Z,100876.88
2018-11-05T23:28:38.736Z,100874.83
2018-11-05T23:31:07.064Z,100864.40
2018-11-05T23:33:35.465Z,100874.27
2018-11-05T23:36:04.109Z,100870.97
2018-11-05T23:38:32.469Z,100872.41
2018-11-05T23:41:00.914Z,100894.82
2018-11-05T23:43:29.156Z,100894.95
2018-11-05T23:45:57.512Z,100892.80
2018-11-05T23:48:25.820Z,100883.63
2018-11-05T23:50:54.200Z,100873.90
2018-11-05T23:53:22.507Z,100876.27
2018-11-05T23:55:50.827Z,100879.48
2018-11-05T23:58:19.159Z,100870.80
